createdAt,value
2018-01-14T00:01:49.162Z,80.90
2018-01-14T00:04:16.619Z,81.20
2018-01-14T00:06:44.087Z,80.30
2018-01-14T00:09:12.354Z,79.30
2018-01-14T00:11:39.826Z,79.30
2018-01-14T00:14:07.310Z,80.00
2018-01-14T00:16:34.774Z,80.90
2018-01-14T00:19:02.226Z,80.10
2018-01-14T00:21:29.742Z,80.80
2018-01-14T00:23:57.362Z,80.90
2018-01-14T00:26:25.616Z,81.20
2018-01-14T00:28:53.087Z,81.20
2018-01-14T00:31:21.311Z,81.30
2018-01-14T00:33:48.766Z,81.30
2018-01-14T00:36:16.215Z,81.40
2018-01-14T00:38:43.788Z,81.10
2018-01-14T00:41:12.004Z,81.70
2018-01-14T00:43:39.467Z,81.70
2018-01-14T00:46:06.924Z,80.40
2018-01-14T00:48:34.419Z,81.30
2018-01-14T00:51:02.786Z,80.60
2018-01-14T00:53:30.219Z,80.70
2018-01-14T00:55:57.814Z,80.80
2018-01-14T00:58:25.307Z,80.50
2018-01-14T01:00:52.784Z,80.30
2018-01-14T01:03:20.278Z,80.50
2018-01-14T01:05:47.801Z,80.90
2018-01-14T01:08:15.339Z,80.90
2018-01-14T01:10:42.795Z,81.50
2018-01-14T01:13:10.279Z,81.90
2018-01-14T01:15:37.747Z,81.40
2018-01-14T01:18:05.190Z,80.80
2018-01-14T01:20:32.775Z,81.50
2018-01-14T01:23:01.001Z,81.20
2018-01-14T01:25:28.500Z,80.50
2018-01-14T01:27:55.918Z,80.20
2018-01-14T01:30:23.366Z,80.80
2018-01-14T01:32:50.865Z,80.80
2018-01-14T01:35:18.320Z,80.10
2018-01-14T01:37:45.784Z,80.40
2018-01-14T01:40:13.251Z,79.80
2018-01-14T01:42:40.705Z,79.60
2018-01-14T01:45:08.186Z,79.40
2018-01-14T01:47:35.651Z,79.90
2018-01-14T01:50:03.116Z,79.70
2018-01-14T01:52:30.562Z,80.20
2018-01-14T01:54:58.027Z,80.30
2018-01-14T01:57:25.474Z,80.80
2018-01-14T01:59:52.958Z,80.60
2018-01-14T02:02:20.447Z,80.60
2018-01-14T02:04:48.688Z,80.10
2018-01-14T02:07:16.150Z,80.10
2018-01-14T02:09:43.634Z,80.40
2018-01-14T02:12:11.117Z,79.90
2018-01-14T02:14:38.611Z,79.40
2018-01-14T02:17:06.574Z,79.70
2018-01-14T02:19:44.500Z,79.50
2018-01-14T02:22:11.945Z,79.50
2018-01-14T02:24:39.441Z,79.20
2018-01-14T02:27:07.703Z,79.70
2018-01-14T02:29:35.151Z,79.60
2018-01-14T02:32:02.615Z,79.50
2018-01-14T02:34:30.088Z,80.40
2018-01-14T02:36:57.601Z,79.70
2018-01-14T02:39:25.070Z,78.60
2018-01-14T02:41:52.558Z,77.50
2018-01-14T02:44:20.020Z,77.80
2018-01-14T02:46:48.236Z,79.00
2018-01-14T02:49:15.708Z,78.80
2018-01-14T02:51:43.203Z,78.30
2018-01-14T02:54:11.406Z,79.10
2018-01-14T02:56:38.880Z,79.10
2018-01-14T02:59:06.355Z,79.10
2018-01-14T03:01:33.859Z,79.00
2018-01-14T03:04:01.323Z,79.00
2018-01-14T03:06:28.898Z,79.30
2018-01-14T03:08:56.370Z,79.40
2018-01-14T03:11:23.852Z,79.30
2018-01-14T03:13:51.346Z,80.00
2018-01-14T03:16:18.807Z,79.20
2018-01-14T03:18:46.263Z,79.30
2018-01-14T03:21:13.743Z,79.60
2018-01-14T03:23:41.197Z,79.40
2018-01-14T03:26:08.666Z,79.10
2018-01-14T03:28:36.151Z,78.60
2018-01-14T03:31:03.606Z,78.60
2018-01-14T03:33:31.062Z,78.90
2018-01-14T03:35:59.306Z,78.60
2018-01-14T03:38:26.867Z,78.60
2018-01-14T03:40:54.351Z,78.20
2018-01-14T03:43:21.805Z,78.20
2018-01-14T03:45:49.268Z,78.20
2018-01-14T03:48:16.751Z,78.40
2018-01-14T03:50:44.194Z,78.30
2018-01-14T03:53:12.457Z,77.70
2018-01-14T03:55:39.909Z,77.70
2018-01-14T03:58:07.367Z,77.80
2018-01-14T04:00:35.593Z,78.20
2018-01-14T04:03:03.058Z,78.30
2018-01-14T04:05:30.534Z,78.40
2018-01-14T04:07:57.995Z,78.60
2018-01-14T04:10:26.257Z,79.10
2018-01-14T04:12:53.702Z,79.70
2018-01-14T04:15:21.166Z,77.90
2018-01-14T04:17:49.440Z,78.80
2018-01-14T04:20:16.914Z,78.70
2018-01-14T04:22:44.386Z,78.40
2018-01-14T04:25:11.846Z,77.70
2018-01-14T04:27:39.323Z,78.50
2018-01-14T04:30:06.791Z,77.70
2018-01-14T04:32:34.276Z,76.50
2018-01-14T04:35:01.780Z,77.30
2018-01-14T04:37:29.303Z,77.30
2018-01-14T04:39:57.535Z,77.80
2018-01-14T04:42:24.983Z,77.70
2018-01-14T04:44:53.213Z,77.70
2018-01-14T04:47:20.695Z,77.70
2018-01-14T04:49:48.194Z,77.70
2018-01-14T04:52:15.642Z,77.30
2018-01-14T04:54:43.089Z,76.20
2018-01-14T04:57:11.338Z,77.80
2018-01-14T04:59:38.797Z,77.70
2018-01-14T05:02:06.286Z,77.80
2018-01-14T05:04:33.770Z,78.00
2018-01-14T05:07:01.242Z,77.30
2018-01-14T05:09:28.709Z,76.90
2018-01-14T05:11:56.154Z,76.40
2018-01-14T05:14:23.640Z,76.50
2018-01-14T05:16:51.080Z,77.60
2018-01-14T05:19:18.570Z,77.10
2018-01-14T05:21:46.102Z,77.30
2018-01-14T05:24:13.589Z,77.50
2018-01-14T05:26:41.057Z,76.10
2018-01-14T05:29:09.293Z,76.90
2018-01-14T05:31:36.786Z,76.80
2018-01-14T05:34:04.229Z,77.10
2018-01-14T05:36:31.704Z,77.50
2018-01-14T05:38:59.141Z,77.50
2018-01-14T05:41:26.624Z,77.70
2018-01-14T05:43:54.072Z,78.10
2018-01-14T05:46:21.540Z,76.90
2018-01-14T05:48:49.042Z,76.20
2018-01-14T05:51:16.463Z,76.80
2018-01-14T05:53:44.688Z,77.30
2018-01-14T05:56:12.191Z,77.30
2018-01-14T05:58:40.378Z,77.80
2018-01-14T06:01:07.822Z,77.80
2018-01-14T06:03:35.325Z,77.60
2018-01-14T06:06:02.798Z,77.10
2018-01-14T06:08:30.296Z,77.80
2018-01-14T06:10:57.794Z,77.80
2018-01-14T06:13:25.259Z,77.80
2018-01-14T06:15:52.711Z,77.60
2018-01-14T06:18:20.189Z,77.80
2018-01-14T06:20:48.396Z,77.20
2018-01-14T06:23:15.871Z,77.20
2018-01-14T06:25:44.105Z,76.50
2018-01-14T06:28:11.579Z,76.50
2018-01-14T06:30:39.050Z,77.30
2018-01-14T06:33:06.519Z,77.30
2018-01-14T06:35:33.972Z,77.40
2018-01-14T06:38:02.242Z,77.90
2018-01-14T06:40:29.705Z,77.80
2018-01-14T06:42:57.176Z,78.50
2018-01-14T06:45:24.654Z,78.10
2018-01-14T06:47:52.140Z,77.90
2018-01-14T06:50:19.622Z,78.20
2018-01-14T06:52:47.058Z,78.40
2018-01-14T06:55:14.539Z,78.80
2018-01-14T06:57:42.878Z,78.90
2018-01-14T07:00:10.366Z,78.90
2018-01-14T07:02:37.822Z,78.80
2018-01-14T07:05:05.279Z,79.00
2018-01-14T07:07:33.509Z,79.30
2018-01-14T07:10:00.970Z,79.20
2018-01-14T07:12:28.467Z,79.20
2018-01-14T07:14:55.904Z,79.20
2018-01-14T07:17:24.150Z,79.70
2018-01-14T07:19:51.608Z,79.70
2018-01-14T07:22:19.093Z,79.90
2018-01-14T07:24:46.566Z,80.20
2018-01-14T07:27:14.035Z,80.10
2018-01-14T07:29:42.265Z,80.00
2018-01-14T07:32:09.731Z,80.00
2018-01-14T07:34:37.202Z,80.10
2018-01-14T07:37:04.665Z,80.30
2018-01-14T07:39:32.138Z,81.10
2018-01-14T07:42:00.413Z,80.90
2018-01-14T07:44:27.865Z,80.90
2018-01-14T07:46:55.322Z,80.90
2018-01-14T07:49:22.785Z,80.80
2018-01-14T07:51:50.268Z,80.90
2018-01-14T07:54:17.704Z,81.10
2018-01-14T07:56:45.979Z,81.00
2018-01-14T07:59:13.421Z,80.90
2018-01-14T08:01:40.878Z,81.20
2018-01-14T08:04:08.363Z,81.20
2018-01-14T08:06:35.818Z,81.20
2018-01-14T08:09:03.282Z,81.40
2018-01-14T08:11:30.726Z,81.40
2018-01-14T08:13:58.222Z,81.50
2018-01-14T08:16:25.662Z,81.50
2018-01-14T08:18:53.879Z,81.60
2018-01-14T08:21:21.355Z,81.60
2018-01-14T08:23:49.583Z,81.70
2018-01-14T08:26:17.043Z,81.70
2018-01-14T08:28:44.519Z,81.60
2018-01-14T08:31:12.007Z,81.60
2018-01-14T08:33:39.455Z,81.90
2018-01-14T08:36:06.935Z,81.80
2018-01-14T08:38:34.383Z,82.00
2018-01-14T08:41:01.856Z,82.00
2018-01-14T08:43:29.300Z,81.80
2018-01-14T08:45:56.767Z,81.70
2018-01-14T08:48:24.992Z,81.20
2018-01-14T08:50:52.483Z,81.20
2018-01-14T08:53:19.955Z,81.60
2018-01-14T08:55:47.394Z,81.50
2018-01-14T08:58:15.621Z,81.50
2018-01-14T09:00:43.068Z,81.50
2018-01-14T09:03:13.062Z,81.70
2018-01-14T09:05:40.518Z,81.70
2018-01-14T09:08:07.973Z,81.90
2018-01-14T09:10:36.224Z,80.80
2018-01-14T09:13:03.678Z,80.80
2018-01-14T09:15:31.160Z,81.00
2018-01-14T09:17:58.639Z,81.20
2018-01-14T09:20:26.134Z,81.10
2018-01-14T09:22:54.593Z,80.40
2018-01-14T09:25:22.088Z,81.30
2018-01-14T09:27:49.577Z,81.30
2018-01-14T09:30:17.012Z,80.90
2018-01-14T09:32:44.462Z,80.70
2018-01-14T09:35:11.939Z,80.70
2018-01-14T09:37:39.396Z,81.00
2018-01-14T09:40:06.855Z,81.20
2018-01-14T09:42:34.336Z,80.40
2018-01-14T09:45:02.567Z,80.90
2018-01-14T09:47:30.046Z,80.90
2018-01-14T09:49:57.511Z,81.20
2018-01-14T09:52:24.982Z,80.50
2018-01-14T09:54:52.435Z,80.50
2018-01-14T09:57:20.660Z,80.60
2018-01-14T09:59:48.136Z,80.50
2018-01-14T10:02:15.605Z,80.60
2018-01-14T10:04:43.095Z,80.80
2018-01-14T10:07:10.560Z,80.70
2018-01-14T10:09:38.824Z,80.50
2018-01-14T10:12:06.275Z,80.50
2018-01-14T10:14:33.749Z,79.80
2018-01-14T10:17:01.205Z,79.80
2018-01-14T10:19:28.698Z,80.50
2018-01-14T10:21:56.170Z,80.20
2018-01-14T10:24:23.625Z,80.80
2018-01-14T10:26:51.102Z,80.70
2018-01-14T10:29:18.553Z,80.10
2018-01-14T10:31:46.030Z,80.40
2018-01-14T10:34:13.536Z,79.50
2018-01-14T10:36:40.980Z,80.10
2018-01-14T10:39:08.458Z,79.90
2018-01-14T10:41:35.917Z,79.30
2018-01-14T10:44:03.370Z,80.10
2018-01-14T10:46:31.610Z,79.00
2018-01-14T10:48:59.087Z,79.00
2018-01-14T10:51:26.581Z,79.10
2018-01-14T10:53:54.048Z,78.20
2018-01-14T10:56:21.507Z,78.70
2018-01-14T10:58:48.985Z,78.50
2018-01-14T11:01:22.970Z,78.20
2018-01-14T11:03:50.439Z,78.20
2018-01-14T11:06:18.639Z,78.60
2018-01-14T11:08:46.133Z,78.40
2018-01-14T11:11:13.596Z,78.80
2018-01-14T11:13:41.057Z,79.00
2018-01-14T11:16:08.505Z,78.70
2018-01-14T11:18:36.083Z,79.30
2018-01-14T11:21:04.286Z,80.50
2018-01-14T11:23:31.747Z,79.70
2018-01-14T11:26:00.017Z,79.10
2018-01-14T11:28:42.279Z,79.10
2018-01-14T11:31:09.764Z,79.00
2018-01-14T11:33:37.955Z,79.50
2018-01-14T11:36:05.424Z,78.80
2018-01-14T11:38:33.664Z,79.20
2018-01-14T11:41:01.152Z,79.20
2018-01-14T11:43:28.609Z,78.20
2018-01-14T11:45:56.062Z,79.00
2018-01-14T11:48:24.309Z,78.80
2018-01-14T11:50:51.770Z,78.70
2018-01-14T11:53:19.275Z,78.50
2018-01-14T11:55:46.722Z,78.70
2018-01-14T11:58:14.178Z,78.90
2018-01-14T12:00:41.622Z,78.30
2018-01-14T12:03:09.098Z,79.00
2018-01-14T12:05:36.543Z,79.30
2018-01-14T12:08:04.044Z,78.90
2018-01-14T12:10:31.540Z,79.00
2018-01-14T12:12:59.068Z,79.00
2018-01-14T12:15:26.527Z,78.40
2018-01-14T12:17:54.758Z,78.90
2018-01-14T12:20:22.222Z,78.90
2018-01-14T12:22:49.679Z,78.70
2018-01-14T12:25:17.950Z,79.10
2018-01-14T12:27:45.459Z,79.10
2018-01-14T12:30:15.414Z,79.10
2018-01-14T12:32:55.491Z,79.30
2018-01-14T12:35:22.951Z,79.30
2018-01-14T12:37:50.398Z,78.80
2018-01-14T12:40:17.860Z,78.60
2018-01-14T12:42:45.302Z,78.50
2018-01-14T12:45:12.781Z,78.90
2018-01-14T12:47:40.214Z,78.70
2018-01-14T12:50:07.686Z,79.00
2018-01-14T12:52:35.175Z,78.90
2018-01-14T12:55:02.661Z,78.80
2018-01-14T12:57:30.125Z,78.70
2018-01-14T12:59:57.568Z,78.60
2018-01-14T13:02:25.066Z,78.90
2018-01-14T13:04:53.063Z,78.60
2018-01-14T13:07:20.550Z,79.00
2018-01-14T13:09:48.009Z,79.30
2018-01-14T13:12:15.486Z,79.20
2018-01-14T13:14:42.946Z,78.90
2018-01-14T13:17:10.583Z,78.30
2018-01-14T13:19:38.039Z,78.70
2018-01-14T13:22:05.500Z,78.80
2018-01-14T13:24:32.966Z,78.70
2018-01-14T13:27:00.411Z,78.80
2018-01-14T13:29:27.895Z,78.50
2018-01-14T13:31:55.390Z,78.80
2018-01-14T13:34:23.621Z,77.90
2018-01-14T13:36:51.082Z,77.80
2018-01-14T13:39:18.576Z,78.20
2018-01-14T13:41:46.069Z,77.80
2018-01-14T13:44:13.525Z,78.30
2018-01-14T13:46:40.997Z,78.30
2018-01-14T13:49:08.448Z,78.00
2018-01-14T13:51:35.941Z,78.20
2018-01-14T13:54:03.383Z,78.60
2018-01-14T13:56:30.857Z,78.80
2018-01-14T13:58:58.313Z,78.40
2018-01-14T14:01:25.791Z,78.80
2018-01-14T14:03:53.256Z,78.50
2018-01-14T14:06:20.706Z,78.70
2018-01-14T14:08:48.175Z,78.70
2018-01-14T14:11:15.639Z,78.60
2018-01-14T14:13:43.116Z,78.60
2018-01-14T14:16:10.563Z,78.70
2018-01-14T14:18:38.034Z,79.10
2018-01-14T14:21:06.262Z,79.30
2018-01-14T14:23:33.782Z,79.30
2018-01-14T14:26:01.282Z,79.30
2018-01-14T14:28:29.541Z,79.50
2018-01-14T14:30:57.814Z,79.10
2018-01-14T14:33:25.266Z,79.10
2018-01-14T14:35:53.486Z,79.00
2018-01-14T14:38:20.972Z,79.00
2018-01-14T14:40:48.450Z,79.50
2018-01-14T14:43:15.910Z,79.60
2018-01-14T14:45:43.402Z,79.50
2018-01-14T14:48:10.864Z,79.50
2018-01-14T14:50:39.106Z,79.40
2018-01-14T14:53:06.562Z,79.40
2018-01-14T14:55:34.950Z,79.70
2018-01-14T14:58:02.420Z,79.40
2018-01-14T15:00:29.930Z,79.80
2018-01-14T15:02:57.401Z,79.70
2018-01-14T15:05:24.866Z,80.00
2018-01-14T15:07:52.330Z,80.00
2018-01-14T15:10:20.583Z,80.30
2018-01-14T15:12:48.266Z,80.30
2018-01-14T15:15:15.737Z,80.70
2018-01-14T15:17:43.246Z,80.50
2018-01-14T15:20:10.962Z,80.70
2018-01-14T15:22:39.169Z,81.40
2018-01-14T15:25:06.682Z,80.60
2018-01-14T15:27:34.146Z,80.70
2018-01-14T15:30:01.623Z,80.50
2018-01-14T15:32:29.128Z,80.70
2018-01-14T15:34:56.573Z,80.80
2018-01-14T15:37:24.959Z,80.80
2018-01-14T15:39:53.171Z,81.00
2018-01-14T15:42:20.660Z,81.00
2018-01-14T15:44:48.118Z,80.90
2018-01-14T15:47:16.337Z,81.20
2018-01-14T15:49:43.836Z,81.30
2018-01-14T15:52:11.333Z,81.20
2018-01-14T15:54:38.841Z,81.30
2018-01-14T15:57:06.325Z,81.40
2018-01-14T15:59:35.323Z,81.80
2018-01-14T16:02:02.856Z,81.50
2018-01-14T16:04:30.300Z,81.70
2018-01-14T16:06:58.510Z,82.20
2018-01-14T16:09:25.992Z,81.90
2018-01-14T16:11:53.525Z,81.80
2018-01-14T16:14:21.751Z,82.10
2018-01-14T16:16:50.007Z,82.20
2018-01-14T16:19:17.466Z,82.20
2018-01-14T16:21:45.033Z,82.20
2018-01-14T16:24:13.262Z,82.20
2018-01-14T16:26:40.729Z,82.20
2018-01-14T16:29:08.181Z,82.40
2018-01-14T16:31:37.176Z,82.40
2018-01-14T16:34:05.399Z,82.30
2018-01-14T16:36:32.892Z,82.30
2018-01-14T16:39:01.140Z,82.20
2018-01-14T16:41:28.646Z,82.10
2018-01-14T16:43:56.878Z,82.30
2018-01-14T16:46:24.331Z,82.30
2018-01-14T16:48:51.818Z,82.20
2018-01-14T16:51:19.267Z,82.20
2018-01-14T16:53:46.852Z,82.30
2018-01-14T16:56:14.314Z,82.40
2018-01-14T16:58:41.774Z,83.10
2018-01-14T17:01:10.011Z,83.00
2018-01-14T17:03:38.244Z,82.50
2018-01-14T17:06:06.707Z,82.40
2018-01-14T17:08:34.154Z,82.60
2018-01-14T17:11:01.600Z,82.60
2018-01-14T17:13:30.495Z,82.60
2018-01-14T17:15:58.746Z,82.60
2018-01-14T17:18:26.233Z,82.60
2018-01-14T17:20:53.723Z,82.60
2018-01-14T17:23:21.182Z,82.60
2018-01-14T17:25:48.660Z,82.60
2018-01-14T17:28:16.155Z,82.60
2018-01-14T17:30:43.614Z,82.80
2018-01-14T17:33:11.127Z,82.60
2018-01-14T17:35:40.453Z,82.80
2018-01-14T17:38:07.907Z,82.70
2018-01-14T17:40:36.345Z,82.50
2018-01-14T17:43:03.812Z,82.60
2018-01-14T17:45:31.329Z,82.70
2018-01-14T17:47:58.803Z,82.80
2018-01-14T17:50:26.315Z,82.80
2018-01-14T17:52:53.761Z,82.70
2018-01-14T17:55:21.999Z,82.90
2018-01-14T17:57:49.482Z,82.90
2018-01-14T18:00:16.946Z,82.90
2018-01-14T18:02:44.436Z,82.80
2018-01-14T18:05:14.972Z,83.00
2018-01-14T18:07:42.492Z,82.90
2018-01-14T18:10:09.977Z,82.90
2018-01-14T18:12:37.441Z,82.80
2018-01-14T18:15:04.900Z,82.50
2018-01-14T18:17:32.357Z,82.90
2018-01-14T18:19:59.848Z,82.80
2018-01-14T18:22:27.304Z,83.00
2018-01-14T18:24:55.546Z,82.90
2018-01-14T18:27:23.013Z,82.80
2018-01-14T18:29:50.479Z,83.10
2018-01-14T18:32:19.039Z,83.00
2018-01-14T18:34:47.128Z,83.20
2018-01-14T18:37:15.151Z,83.20
2018-01-14T18:39:43.782Z,83.00
2018-01-14T18:42:12.128Z,83.00
2018-01-14T18:44:40.185Z,83.20
2018-01-14T18:47:07.672Z,83.20
2018-01-14T18:49:35.143Z,83.00
2018-01-14T18:52:03.008Z,83.20
2018-01-14T18:54:31.840Z,83.00
2018-01-14T18:56:59.333Z,83.00
2018-01-14T18:59:26.818Z,83.30
2018-01-14T19:01:54.289Z,83.30
2018-01-14T19:04:22.436Z,83.50
2018-01-14T19:06:58.496Z,84.20
2018-01-14T19:09:32.493Z,83.60
2018-01-14T19:16:02.012Z,83.70
2018-01-14T19:18:30.235Z,83.50
2018-01-14T19:20:58.464Z,83.50
2018-01-14T19:23:25.975Z,83.60
2018-01-14T19:25:54.255Z,83.70
2018-01-14T19:28:21.795Z,83.60
2018-01-14T19:30:49.864Z,84.10
2018-01-14T19:33:18.299Z,84.00
2018-01-14T19:35:46.703Z,84.30
2018-01-14T19:38:14.234Z,84.20
2018-01-14T19:40:41.701Z,84.10
2018-01-14T19:43:09.978Z,84.30
2018-01-14T19:45:39.360Z,84.30
2018-01-14T19:48:07.594Z,84.90
2018-01-14T19:50:35.183Z,84.40
2018-01-14T19:53:03.516Z,84.30
2018-01-14T19:55:32.019Z,84.50
2018-01-14T19:57:59.488Z,84.40
2018-01-14T20:00:27.594Z,84.40
2018-01-14T20:02:55.139Z,84.40
2018-01-14T20:05:22.619Z,84.50
2018-01-14T20:07:50.094Z,84.60
2018-01-14T20:10:17.611Z,84.60
2018-01-14T20:12:45.843Z,84.80
2018-01-14T20:15:13.333Z,84.70
2018-01-14T20:17:40.857Z,84.80
2018-01-14T20:20:08.360Z,84.90
2018-01-14T20:22:35.838Z,84.90
2018-01-14T20:25:03.440Z,84.80
2018-01-14T20:27:31.879Z,84.80
2018-01-14T20:29:59.965Z,84.70
2018-01-14T20:32:27.439Z,84.90
2018-01-14T20:34:54.932Z,84.90
2018-01-14T20:37:23.171Z,85.50
2018-01-14T20:39:50.654Z,84.90
2018-01-14T20:42:18.183Z,84.90
2018-01-14T20:44:51.652Z,84.90
2018-01-14T20:47:20.655Z,85.10
2018-01-14T20:49:49.780Z,85.10
2018-01-14T20:52:17.300Z,85.10
2018-01-14T20:54:45.242Z,85.00
2018-01-14T20:57:13.479Z,85.30
2018-01-14T20:59:41.348Z,85.20
2018-01-14T21:02:08.832Z,85.30
2018-01-14T21:04:36.335Z,85.20
2018-01-14T21:07:04.178Z,85.20
2018-01-14T21:09:32.439Z,85.40
2018-01-14T21:11:59.928Z,85.30
2018-01-14T21:14:27.429Z,85.40
2018-01-14T21:16:55.666Z,85.40
2018-01-14T21:19:23.167Z,85.40
2018-01-14T21:21:52.023Z,85.40
2018-01-14T21:24:20.278Z,85.50
2018-01-14T21:26:48.163Z,85.50
2018-01-14T21:29:15.652Z,85.40
2018-01-14T21:31:44.837Z,85.50
2018-01-14T21:34:12.346Z,85.50
2018-01-14T21:36:40.623Z,85.50
2018-01-14T21:39:08.093Z,85.50
2018-01-14T21:41:35.785Z,85.50
2018-01-14T21:44:03.687Z,85.60
2018-01-14T21:46:31.154Z,85.60
2018-01-14T21:49:00.664Z,85.60
2018-01-14T21:51:28.982Z,85.60
2018-01-14T21:53:56.743Z,85.70
2018-01-14T21:56:25.960Z,85.70
2018-01-14T21:58:53.439Z,86.40
2018-01-14T22:01:21.718Z,85.80
2018-01-14T22:03:49.965Z,85.90
2018-01-14T22:06:17.478Z,85.80
2018-01-14T22:08:44.962Z,85.80
2018-01-14T22:11:12.418Z,85.90
2018-01-14T22:13:39.931Z,85.80
2018-01-14T22:16:07.393Z,85.80
2018-01-14T22:18:34.863Z,85.90
2018-01-14T22:21:02.320Z,85.90
2018-01-14T22:23:30.552Z,86.00
2018-01-14T22:25:58.046Z,85.90
2018-01-14T22:28:25.505Z,86.00
2018-01-14T22:30:53.009Z,85.90
2018-01-14T22:33:20.467Z,86.00
2018-01-14T22:35:47.938Z,86.80
2018-01-14T22:38:15.407Z,86.10
2018-01-14T22:40:42.880Z,86.10
2018-01-14T22:43:10.359Z,86.00
2018-01-14T22:45:37.820Z,86.10
2018-01-14T22:48:05.333Z,86.10
2018-01-14T22:50:32.805Z,86.10
2018-01-14T22:53:00.314Z,86.20
2018-01-14T22:55:27.758Z,86.20
2018-01-14T22:57:55.224Z,86.30
2018-01-14T23:00:22.742Z,86.20
2018-01-14T23:02:50.203Z,86.30
2018-01-14T23:05:18.446Z,86.30
2018-01-14T23:07:46.664Z,86.20
2018-01-14T23:10:14.169Z,86.20
2018-01-14T23:12:41.641Z,86.20
2018-01-14T23:15:09.670Z,86.20
2018-01-14T23:17:37.152Z,86.30
2018-01-14T23:20:04.667Z,86.40
2018-01-14T23:22:32.893Z,86.40
2018-01-14T23:25:00.357Z,86.30
2018-01-14T23:27:27.918Z,86.30
2018-01-14T23:29:55.387Z,86.40
2018-01-14T23:32:23.715Z,86.50
2018-01-14T23:34:51.204Z,86.40
2018-01-14T23:37:18.671Z,86.40
2018-01-14T23:39:46.157Z,86.40
2018-01-14T23:42:13.666Z,86.40
2018-01-14T23:44:41.190Z,86.40
2018-01-14T23:47:09.433Z,86.50
2018-01-14T23:49:36.903Z,86.30
2018-01-14T23:52:04.379Z,86.50
2018-01-14T23:54:31.873Z,86.40
2018-01-14T23:56:59.334Z,86.50
2018-01-14T23:59:26.810Z,86.60
